createdAt,value
2016-03-16T00:00:29.700Z,58.71
2016-03-16T00:01:29.703Z,59.19
2016-03-16T00:02:29.721Z,59.56
2016-03-16T00:03:29.723Z,59.19
2016-03-16T00:04:29.742Z,59.56
2016-03-16T00:05:29.760Z,59.47
2016-03-16T00:06:29.763Z,59.66
2016-03-16T00:07:29.780Z,59.75
2016-03-16T00:08:29.799Z,59.28
2016-03-16T00:09:29.802Z,58.71
2016-03-16T00:10:29.821Z,58.33
2016-03-16T00:11:29.824Z,57.76
2016-03-16T00:12:29.857Z,57.95
2016-03-16T00:13:29.860Z,57.57
2016-03-16T00:14:29.878Z,57.42
2016-03-16T00:15:29.881Z,57.51
2016-03-16T00:16:29.899Z,57.98
2016-03-16T00:17:29.902Z,58.17
2016-03-16T00:18:29.920Z,58.65
2016-03-16T00:19:29.929Z,59.31
2016-03-16T00:20:29.920Z,59.22
2016-03-16T00:21:29.785Z,59.59
2016-03-16T00:22:30.104Z,59.69
2016-03-16T00:23:29.939Z,59.31
2016-03-16T00:24:29.952Z,58.45
2016-03-16T00:25:29.950Z,58.17
2016-03-16T00:26:29.949Z,58.26
2016-03-16T00:27:29.978Z,58.17
2016-03-16T00:28:29.977Z,57.79
2016-03-16T00:29:29.993Z,57.89
2016-03-16T00:30:29.998Z,57.51
2016-03-16T00:31:30.014Z,57.7
2016-03-16T00:32:30.016Z,57.89
2016-03-16T00:33:30.032Z,57.89
2016-03-16T00:34:30.066Z,57.32
2016-03-16T00:35:30.052Z,57.6
2016-03-16T00:36:30.102Z,57.04
2016-03-16T00:37:30.073Z,57.23
2016-03-16T00:38:30.106Z,57.13
2016-03-16T00:39:30.108Z,57.42
2016-03-16T00:40:30.127Z,57.32
2016-03-16T00:41:30.129Z,57.32
2016-03-16T00:42:30.178Z,57.42
2016-03-16T00:43:30.150Z,57.51
2016-03-16T00:44:30.214Z,57.6
2016-03-16T00:45:30.186Z,57.7
2016-03-16T00:46:30.235Z,57.23
2016-03-16T00:47:30.206Z,57.23
2016-03-16T00:48:30.241Z,57.32
2016-03-16T00:49:30.228Z,57.32
2016-03-16T00:50:30.261Z,57.79
2016-03-16T00:51:30.249Z,57.7
2016-03-16T00:52:30.267Z,57.51
2016-03-16T00:53:30.285Z,57.6
2016-03-16T00:54:30.304Z,57.42
2016-03-16T00:55:30.307Z,57.42
2016-03-16T00:56:30.340Z,57.7
2016-03-16T00:57:30.343Z,57.51
2016-03-16T00:58:30.347Z,57.13
2016-03-16T00:59:30.380Z,57.42
2016-03-16T01:00:30.367Z,57.42
2016-03-16T01:01:30.385Z,57.89
2016-03-16T01:02:30.404Z,57.79
2016-03-16T01:03:30.407Z,57.98
2016-03-16T01:04:30.425Z,58.07
2016-03-16T01:05:30.427Z,57.98
2016-03-16T01:06:30.305Z,57.7
2016-03-16T01:07:30.467Z,57.89
2016-03-16T01:08:30.470Z,58.26
2016-03-16T01:09:30.488Z,58.26
2016-03-16T01:10:30.506Z,57.98
2016-03-16T01:11:30.509Z,58.17
2016-03-16T01:12:30.543Z,58.17
2016-03-16T01:13:30.550Z,58.07
2016-03-16T01:14:30.553Z,58.93
2016-03-16T01:15:30.571Z,58.65
2016-03-16T01:16:30.589Z,58.74
2016-03-16T01:17:30.609Z,59.41
2016-03-16T01:18:30.611Z,59.31
2016-03-16T01:19:30.629Z,59.5
2016-03-16T01:20:30.631Z,59.22
2016-03-16T01:21:30.682Z,59.59
2016-03-16T01:22:30.669Z,59.69
2016-03-16T01:23:30.687Z,59.5
2016-03-16T01:24:30.690Z,59.59
2016-03-16T01:25:30.692Z,59.78
2016-03-16T01:26:30.711Z,60.06
2016-03-16T01:27:30.729Z,60.44
2016-03-16T01:28:30.747Z,60.54
2016-03-16T01:29:30.750Z,60.64
2016-03-16T01:30:30.768Z,60.83
2016-03-16T01:31:30.771Z,61.02
2016-03-16T01:32:30.789Z,61.02
2016-03-16T01:33:30.792Z,60.83
2016-03-16T01:34:30.810Z,61.02
2016-03-16T01:35:30.829Z,61.58
2016-03-16T01:36:30.878Z,61.68
2016-03-16T01:37:30.850Z,61.21
2016-03-16T01:38:30.883Z,61.96
2016-03-16T01:39:30.886Z,62.05
2016-03-16T01:40:30.889Z,62.43
2016-03-16T01:41:30.907Z,61.96
2016-03-16T01:42:30.926Z,62.43
2016-03-16T01:43:30.928Z,62.34
2016-03-16T01:44:31.009Z,62.34
2016-03-16T01:45:30.965Z,62.82
2016-03-16T01:46:30.998Z,62.91
2016-03-16T01:47:30.986Z,63.29
2016-03-16T01:48:31.051Z,63.1
2016-03-16T01:49:31.007Z,63.2
2016-03-16T01:50:31.103Z,63.85
2016-03-16T01:51:31.043Z,63.95
2016-03-16T01:52:31.093Z,63.95
2016-03-16T01:53:31.065Z,64.23
2016-03-16T01:54:31.114Z,63.95
2016-03-16T01:55:31.086Z,63.95
2016-03-16T01:56:31.136Z,64.52
2016-03-16T01:57:31.123Z,64.81
2016-03-16T01:58:31.172Z,64.52
2016-03-16T01:59:31.144Z,64.81
2016-03-16T02:00:31.209Z,65
2016-03-16T02:01:31.164Z,65.19
2016-03-16T02:02:31.198Z,65.47
2016-03-16T02:03:31.186Z,65.37
2016-03-16T02:04:31.219Z,64.9
2016-03-16T02:05:31.238Z,64.71
2016-03-16T02:06:31.271Z,64.42
2016-03-16T02:07:31.257Z,63.85
2016-03-16T02:08:31.260Z,64.52
2016-03-16T02:09:31.279Z,64.61
2016-03-16T02:10:31.297Z,64.61
2016-03-16T02:11:31.300Z,64.42
2016-03-16T02:12:31.318Z,64.9
2016-03-16T02:13:31.321Z,64.71
2016-03-16T02:14:31.339Z,64.9
2016-03-16T02:15:31.357Z,65.28
2016-03-16T02:16:31.376Z,65.19
2016-03-16T02:17:31.378Z,64.9
2016-03-16T02:18:31.397Z,65.28
2016-03-16T02:19:31.399Z,65.66
2016-03-16T02:20:31.419Z,65.47
2016-03-16T02:21:31.421Z,65.19
2016-03-16T02:22:31.456Z,65.37
2016-03-16T02:23:31.458Z,65.75
2016-03-16T02:24:31.476Z,65.56
2016-03-16T02:25:31.479Z,65.66
2016-03-16T02:26:31.481Z,65.66
2016-03-16T02:27:31.500Z,65.28
2016-03-16T02:28:31.517Z,65.19
2016-03-16T02:29:31.537Z,65.28
2016-03-16T02:30:31.539Z,65.37
2016-03-16T02:31:31.558Z,65.47
2016-03-16T02:32:31.576Z,65.37
2016-03-16T02:33:31.610Z,65.47
2016-03-16T02:34:31.597Z,65
2016-03-16T02:35:31.631Z,64.9
2016-03-16T02:36:31.634Z,64.71
2016-03-16T02:37:31.636Z,64.81
2016-03-16T02:38:31.655Z,64.9
2016-03-16T02:39:31.672Z,65.19
2016-03-16T02:40:31.675Z,65.47
2016-03-16T02:41:31.694Z,65.28
2016-03-16T02:42:31.697Z,65.19
2016-03-16T02:43:31.715Z,65.28
2016-03-16T02:44:31.733Z,65.94
2016-03-16T02:45:31.751Z,65.94
2016-03-16T02:46:31.754Z,65.84
2016-03-16T02:47:31.772Z,65.66
2016-03-16T02:48:31.776Z,65.94
2016-03-16T02:49:31.809Z,65.84
2016-03-16T02:50:31.796Z,65.75
2016-03-16T02:51:31.829Z,66.03
2016-03-16T02:52:31.832Z,66.13
2016-03-16T02:53:31.867Z,66.32
2016-03-16T02:54:31.854Z,66.13
2016-03-16T02:55:31.888Z,66.6
2016-03-16T02:56:31.890Z,66.41
2016-03-16T02:57:31.909Z,66.6
2016-03-16T02:58:31.911Z,65.94
2016-03-16T02:59:31.914Z,65.47
2016-03-16T03:00:31.933Z,65.94
2016-03-16T03:01:31.967Z,65.19
2016-03-16T03:02:31.969Z,65
2016-03-16T03:03:31.986Z,64.61
2016-03-16T03:04:31.989Z,64.81
2016-03-16T03:05:31.992Z,64.81
2016-03-16T03:06:32.027Z,64.71
2016-03-16T03:07:32.029Z,64.9
2016-03-16T03:08:32.032Z,64.52
2016-03-16T03:09:32.050Z,64.52
2016-03-16T03:10:32.069Z,64.81
2016-03-16T03:11:32.071Z,64.61
2016-03-16T03:12:32.090Z,64.81
2016-03-16T03:13:32.108Z,64.71
2016-03-16T03:14:32.111Z,64.33
2016-03-16T03:15:32.129Z,64.23
2016-03-16T03:16:32.146Z,64.23
2016-03-16T03:17:32.166Z,64.33
2016-03-16T03:18:32.168Z,63.67
2016-03-16T03:19:32.187Z,63.48
2016-03-16T03:20:32.190Z,63.85
2016-03-16T03:21:32.223Z,63.57
2016-03-16T03:22:32.226Z,63.85
2016-03-16T03:23:32.260Z,63.76
2016-03-16T03:24:32.247Z,63.67
2016-03-16T03:25:32.265Z,63.1
2016-03-16T03:26:32.284Z,63.1
2016-03-16T03:27:32.301Z,63.48
2016-03-16T03:28:32.304Z,63.67
2016-03-16T03:29:32.307Z,63.95
2016-03-16T03:30:32.326Z,63.48
2016-03-16T03:31:32.344Z,63.1
2016-03-16T03:32:32.347Z,63.01
2016-03-16T03:33:32.365Z,63.2
2016-03-16T03:34:32.368Z,62.53
2016-03-16T03:35:32.386Z,61.96
2016-03-16T03:36:32.404Z,61.96
2016-03-16T03:37:32.423Z,62.43
2016-03-16T03:38:32.425Z,62.43
2016-03-16T03:39:32.443Z,61.96
2016-03-16T03:40:32.461Z,62.34
2016-03-16T03:41:32.480Z,61.96
2016-03-16T03:42:32.483Z,61.87
2016-03-16T03:43:32.501Z,61.58
2016-03-16T03:44:32.504Z,61.68
2016-03-16T03:45:32.522Z,61.4
2016-03-16T03:46:32.525Z,61.58
2016-03-16T03:47:32.559Z,61.21
2016-03-16T03:48:32.562Z,61.3
2016-03-16T03:49:32.580Z,61.77
2016-03-16T03:50:32.598Z,62.15
2016-03-16T03:51:32.601Z,61.58
2016-03-16T03:52:32.603Z,61.02
2016-03-16T03:53:32.621Z,60.35
2016-03-16T03:54:32.623Z,60.16
2016-03-16T03:55:32.642Z,59.78
2016-03-16T03:56:32.661Z,59.78
2016-03-16T03:57:32.679Z,59.03
2016-03-16T03:58:32.698Z,58.45
2016-03-16T03:59:32.700Z,57.51
2016-03-16T04:00:32.719Z,57.04
2016-03-16T04:01:32.737Z,56.37
2016-03-16T04:02:32.740Z,56.85
2016-03-16T04:03:32.742Z,56.85
2016-03-16T04:04:32.760Z,56.56
2016-03-16T04:05:32.778Z,56.18
2016-03-16T04:06:32.781Z,56.18
2016-03-16T04:07:32.799Z,55.99
2016-03-16T04:08:32.818Z,56.09
2016-03-16T04:09:32.821Z,56.46
2016-03-16T04:10:32.839Z,56.37
2016-03-16T04:11:32.858Z,55.99
2016-03-16T04:12:32.860Z,56.37
2016-03-16T04:13:32.910Z,56.18
2016-03-16T04:14:32.896Z,56.46
2016-03-16T04:15:32.915Z,56.18
2016-03-16T04:16:32.933Z,55.99
2016-03-16T04:17:32.935Z,56.27
2016-03-16T04:18:32.938Z,55.9
2016-03-16T04:19:32.957Z,55.33
2016-03-16T04:20:32.976Z,56.3
2016-03-16T04:21:32.978Z,55.99
2016-03-16T04:22:32.997Z,56.27
2016-03-16T04:23:33.015Z,55.52
2016-03-16T04:24:33.033Z,55.45
2016-03-16T04:25:33.036Z,56.18
2016-03-16T04:26:33.054Z,56.09
2016-03-16T04:27:33.057Z,55.99
2016-03-16T04:28:33.075Z,56.37
2016-03-16T04:29:33.093Z,55.62
2016-03-16T04:30:33.112Z,55.14
2016-03-16T04:31:33.115Z,54.69
2016-03-16T04:32:33.117Z,54.95
2016-03-16T04:33:33.151Z,54.38
2016-03-16T04:34:33.154Z,54.38
2016-03-16T04:35:33.156Z,54.98
2016-03-16T04:36:33.175Z,54.76
2016-03-16T04:37:33.193Z,54.47
2016-03-16T04:38:33.212Z,54.28
2016-03-16T04:39:33.230Z,54.38
2016-03-16T04:40:33.233Z,54.57
2016-03-16T04:41:33.235Z,54.47
2016-03-16T04:42:33.253Z,54.38
2016-03-16T04:43:33.272Z,55.05
2016-03-16T04:44:33.275Z,55.14
2016-03-16T04:45:33.308Z,55.14
2016-03-16T04:46:33.311Z,55.05
2016-03-16T04:47:33.329Z,54.38
2016-03-16T04:48:33.332Z,54.67
2016-03-16T04:49:33.366Z,54.76
2016-03-16T04:50:33.354Z,55.14
2016-03-16T04:51:33.387Z,55.17
2016-03-16T04:52:33.374Z,54.67
2016-03-16T04:53:33.407Z,54.86
2016-03-16T04:54:33.395Z,54.76
2016-03-16T04:55:33.429Z,55.14
2016-03-16T04:56:33.448Z,55.14
2016-03-16T04:57:33.465Z,55.17
2016-03-16T04:58:33.468Z,55.33
2016-03-16T04:59:33.487Z,55.36
2016-03-16T05:00:33.505Z,54.98
2016-03-16T05:01:33.508Z,55.17
2016-03-16T05:02:33.367Z,55.14
2016-03-16T05:03:33.526Z,55.14
2016-03-16T05:04:33.545Z,54.95
2016-03-16T05:05:33.594Z,54.76
2016-03-16T05:06:33.552Z,54.67
2016-03-16T05:07:33.589Z,55.14
2016-03-16T05:08:33.576Z,55.24
2016-03-16T05:09:33.595Z,55.24
2016-03-16T05:10:33.614Z,55.24
2016-03-16T05:11:33.631Z,55.8
2016-03-16T05:12:33.634Z,55.52
2016-03-16T05:13:33.496Z,55.62
2016-03-16T05:14:33.655Z,55.9
2016-03-16T05:15:33.673Z,55.99
2016-03-16T05:16:33.692Z,55.14
2016-03-16T05:17:33.695Z,55.24
2016-03-16T05:18:33.728Z,54.95
2016-03-16T05:19:33.716Z,54.76
2016-03-16T05:20:33.749Z,55.14
2016-03-16T05:21:33.752Z,55.24
2016-03-16T05:22:33.786Z,55.43
2016-03-16T05:23:33.773Z,55.14
2016-03-16T05:24:33.791Z,55.14
2016-03-16T05:25:33.794Z,55.05
2016-03-16T05:26:33.828Z,55.14
2016-03-16T05:27:33.831Z,55.05
2016-03-16T05:28:33.865Z,55.71
2016-03-16T05:29:33.852Z,55.71
2016-03-16T05:30:33.854Z,55.8
2016-03-16T05:31:33.873Z,55.71
2016-03-16T05:33:33.909Z,55.8
2016-03-16T05:34:33.928Z,56.37
2016-03-16T05:35:33.931Z,55.8
2016-03-16T05:36:33.948Z,55.52
2016-03-16T05:37:33.967Z,55.43
2016-03-16T05:38:33.985Z,55.52
2016-03-16T05:39:33.988Z,55.99
2016-03-16T05:40:33.991Z,56.18
2016-03-16T05:41:34.025Z,56.66
2016-03-16T05:42:33.262Z,56.75
2016-03-16T05:43:34.045Z,56.46
2016-03-16T05:44:34.048Z,56.27
2016-03-16T05:45:34.067Z,56.85
2016-03-16T05:46:34.085Z,57.04
2016-03-16T05:47:34.088Z,57.32
2016-03-16T05:48:34.105Z,56.66
2016-03-16T05:49:34.108Z,56.85
2016-03-16T05:50:34.127Z,56.56
2016-03-16T05:51:34.130Z,56.37
2016-03-16T05:52:34.133Z,56.27
2016-03-16T05:53:34.150Z,57.13
2016-03-16T05:54:34.169Z,57.13
2016-03-16T05:55:34.202Z,57.42
2016-03-16T05:56:34.205Z,57.51
2016-03-16T05:57:34.224Z,58.07
2016-03-16T05:58:34.243Z,58.36
2016-03-16T05:59:34.246Z,58.84
2016-03-16T06:00:34.264Z,58.55
2016-03-16T06:01:34.282Z,59.31
2016-03-16T06:02:34.285Z,59.5
2016-03-16T06:03:34.288Z,59.22
2016-03-16T06:04:34.321Z,59.59
2016-03-16T06:05:34.324Z,59.41
2016-03-16T06:06:34.326Z,59.97
2016-03-16T06:07:34.345Z,60.64
2016-03-16T06:08:34.362Z,61.02
2016-03-16T06:09:34.381Z,60.92
2016-03-16T06:10:34.384Z,61.49
2016-03-16T06:11:34.386Z,61.77
2016-03-16T06:12:34.421Z,62.62
2016-03-16T06:13:34.439Z,62.53
2016-03-16T06:14:34.426Z,63.1
2016-03-16T06:15:34.445Z,63.1
2016-03-16T06:16:34.494Z,63.2
2016-03-16T06:17:34.465Z,63.1
2016-03-16T06:18:34.483Z,63.48
2016-03-16T06:19:34.502Z,63.85
2016-03-16T06:20:34.505Z,63.95
2016-03-16T06:21:34.507Z,64.14
2016-03-16T06:22:34.557Z,64.33
2016-03-16T06:23:34.544Z,64.04
2016-03-16T06:24:34.577Z,64.61
2016-03-16T06:25:34.581Z,64.9
2016-03-16T06:26:34.583Z,65
2016-03-16T06:27:34.602Z,65
2016-03-16T06:28:34.620Z,65.28
2016-03-16T06:29:34.608Z,65.19
2016-03-16T06:30:34.624Z,65.47
2016-03-16T06:31:34.643Z,65.28
2016-03-16T06:32:34.693Z,65.56
2016-03-16T06:33:34.680Z,65.37
2016-03-16T06:34:34.699Z,65.47
2016-03-16T06:35:34.685Z,65.47
2016-03-16T06:36:34.704Z,65.09
2016-03-16T06:37:34.737Z,65.37
2016-03-16T06:38:34.726Z,65.84
2016-03-16T06:39:34.774Z,65.84
2016-03-16T06:40:34.745Z,65.94
2016-03-16T06:41:34.779Z,65.94
2016-03-16T06:42:34.782Z,65.84
2016-03-16T06:43:34.800Z,66.47
2016-03-16T06:44:34.804Z,66.51
2016-03-16T06:45:34.869Z,65.66
2016-03-16T06:46:34.872Z,65.94
2016-03-16T06:47:34.703Z,66.13
2016-03-16T06:48:34.861Z,66.13
2016-03-16T06:49:34.880Z,65.37
2016-03-16T06:50:34.882Z,65.47
2016-03-16T06:51:34.900Z,65.19
2016-03-16T06:52:34.903Z,64.04
2016-03-16T06:53:34.922Z,64.04
2016-03-16T06:54:34.940Z,63.85
2016-03-16T06:55:34.942Z,63.39
2016-03-16T06:56:34.961Z,63.32
2016-03-16T06:57:34.979Z,63.42
2016-03-16T06:58:34.997Z,63.23
2016-03-16T06:59:34.999Z,63.04
2016-03-16T07:00:35.018Z,62.37
2016-03-16T07:01:35.021Z,62.66
2016-03-16T07:02:35.040Z,62.18
2016-03-16T07:03:35.058Z,62.08
2016-03-16T07:04:35.061Z,62.37
2016-03-16T07:05:35.079Z,62.08
2016-03-16T07:06:34.926Z,62.08
2016-03-16T07:07:35.116Z,61.9
2016-03-16T07:08:35.118Z,61.71
2016-03-16T07:09:35.137Z,61.71
2016-03-16T07:10:35.154Z,61.33
2016-03-16T07:11:35.173Z,61.05
2016-03-16T07:12:35.191Z,60.95
2016-03-16T07:13:35.194Z,61.05
2016-03-16T07:14:35.197Z,61.33
2016-03-16T07:15:35.214Z,60.86
2016-03-16T07:16:35.217Z,61.05
2016-03-16T07:17:35.236Z,60.95
2016-03-16T07:18:35.239Z,60.47
2016-03-16T07:19:35.273Z,60.38
2016-03-16T07:20:35.275Z,60.67
2016-03-16T07:21:35.294Z,60.67
2016-03-16T07:22:35.311Z,60.38
2016-03-16T07:23:35.314Z,60.67
2016-03-16T07:24:35.333Z,61.05
2016-03-16T07:25:35.352Z,61.52
2016-03-16T07:26:35.355Z,60.95
2016-03-16T07:27:35.389Z,61.24
2016-03-16T07:28:35.375Z,62.34
2016-03-16T07:29:35.394Z,61.99
2016-03-16T07:30:35.396Z,62.05
2016-03-16T07:31:35.430Z,61.71
2016-03-16T07:32:35.432Z,61.43
2016-03-16T07:33:35.451Z,61.71
2016-03-16T07:34:35.469Z,61.71
2016-03-16T07:35:35.518Z,60.86
2016-03-16T07:36:35.490Z,60.28
2016-03-16T07:37:35.555Z,59.72
2016-03-16T07:38:35.527Z,59.05
2016-03-16T07:39:35.530Z,58.89
2016-03-16T07:40:35.548Z,58.51
2016-03-16T07:41:35.551Z,57.95
2016-03-16T07:42:35.568Z,58.14
2016-03-16T07:43:35.587Z,58.33
2016-03-16T07:44:35.589Z,58.2
2016-03-16T07:45:35.608Z,57.95
2016-03-16T07:46:35.611Z,58.48
2016-03-16T07:47:35.644Z,58.86
2016-03-16T07:48:35.647Z,59.05
2016-03-16T07:49:35.666Z,58.67
2016-03-16T07:50:35.684Z,59.25
2016-03-16T07:51:35.687Z,59.25
2016-03-16T07:52:35.705Z,59.25
2016-03-16T07:53:35.723Z,58.99
2016-03-16T07:54:35.741Z,58.67
2016-03-16T07:55:35.744Z,58.8
2016-03-16T07:56:35.763Z,58.51
2016-03-16T07:57:35.750Z,58.77
2016-03-16T07:58:35.769Z,58.61
2016-03-16T07:59:35.787Z,58.67
2016-03-16T08:00:35.805Z,58.86
2016-03-16T08:01:35.839Z,58.96
2016-03-16T08:02:35.826Z,58.96
2016-03-16T08:03:35.860Z,58.86
2016-03-16T08:04:35.846Z,59.34
2016-03-16T08:05:35.880Z,59.34
2016-03-16T08:06:35.880Z,58.58
2016-03-16T08:07:35.898Z,58.77
2016-03-16T08:08:35.917Z,59.34
2016-03-16T08:09:35.934Z,59.25
2016-03-16T08:10:35.937Z,59.05
2016-03-16T08:11:35.955Z,59.46
2016-03-16T08:12:35.974Z,58.51
2016-03-16T08:13:35.977Z,57.28
2016-03-16T08:14:35.229Z,56.9
2016-03-16T08:15:36.013Z,56.05
2016-03-16T08:16:36.016Z,55.79
2016-03-16T08:17:36.035Z,55.79
2016-03-16T08:18:35.287Z,55.32
2016-03-16T08:19:36.055Z,55.89
2016-03-16T08:20:36.074Z,54.75
2016-03-16T08:21:36.092Z,55.22
2016-03-16T08:22:36.094Z,54.75
2016-03-16T08:23:36.112Z,55.22
2016-03-16T08:24:36.115Z,54.85
2016-03-16T08:25:36.134Z,54.75
2016-03-16T08:26:36.152Z,55.13
2016-03-16T08:27:36.171Z,55.04
2016-03-16T08:28:36.173Z,55.22
2016-03-16T08:29:36.192Z,55.32
2016-03-16T08:30:36.210Z,55.7
2016-03-16T08:31:36.212Z,55.6
2016-03-16T08:32:36.231Z,56.43
2016-03-16T08:33:36.093Z,56.52
2016-03-16T08:34:36.267Z,56.71
2016-03-16T08:35:36.286Z,57.47
2016-03-16T08:36:36.289Z,56.81
2016-03-16T08:37:36.306Z,56.62
2016-03-16T08:38:36.309Z,57.09
2016-03-16T08:39:36.344Z,57.09
2016-03-16T08:40:36.346Z,56.99
2016-03-16T08:41:36.364Z,56.24
2016-03-16T08:42:36.366Z,56.05
2016-03-16T08:43:36.385Z,55.7
2016-03-16T08:44:36.403Z,55.98
2016-03-16T08:45:36.406Z,54.94
2016-03-16T08:46:36.424Z,54.08
2016-03-16T08:47:36.444Z,54.02
2016-03-16T08:48:36.446Z,54.18
2016-03-16T08:49:36.449Z,54.21
2016-03-16T08:50:36.482Z,53.45
2016-03-16T08:51:36.501Z,53.16
2016-03-16T08:52:36.504Z,53.16
2016-03-16T08:53:36.537Z,52.69
2016-03-16T08:54:36.555Z,52.5
2016-03-16T08:55:36.558Z,52.69
2016-03-16T08:56:36.561Z,52.12
2016-03-16T08:57:36.595Z,51.55
2016-03-16T08:58:36.598Z,52.4
2016-03-16T08:59:36.601Z,52.31
2016-03-16T09:00:36.681Z,52.78
2016-03-16T09:01:36.684Z,53.16
2016-03-16T09:02:36.687Z,52.69
2016-03-16T09:03:36.689Z,53.07
2016-03-16T09:04:36.723Z,53.16
2016-03-16T09:05:36.756Z,53.23
2016-03-16T09:06:36.765Z,53.99
2016-03-16T09:07:36.783Z,53.61
2016-03-16T09:08:36.739Z,53.04
2016-03-16T09:09:36.789Z,53.04
2016-03-16T09:10:36.791Z,53.04
2016-03-16T09:11:36.841Z,53.52
2016-03-16T09:12:36.811Z,54.18
2016-03-16T09:13:36.846Z,53.99
2016-03-16T09:14:36.864Z,53.8
2016-03-16T09:15:36.866Z,54.27
2016-03-16T09:16:36.854Z,53.14
2016-03-16T09:17:36.857Z,53.52
2016-03-16T09:18:36.890Z,53.23
2016-03-16T09:19:36.893Z,53.14
2016-03-16T09:20:36.911Z,53.8
2016-03-16T09:21:36.917Z,53.61
2016-03-16T09:22:36.935Z,52.85
2016-03-16T09:23:36.938Z,53.04
2016-03-16T09:24:36.972Z,53.14
2016-03-16T09:25:37.070Z,53.04
2016-03-16T09:26:36.986Z,52.85
2016-03-16T09:27:36.997Z,53.04
2016-03-16T09:28:36.971Z,53.14
2016-03-16T09:29:37.329Z,53.14
2016-03-16T09:30:38.060Z,53.52
2016-03-16T09:31:36.980Z,53.52
2016-03-16T09:32:36.994Z,53.52
2016-03-16T09:33:36.992Z,53.14
2016-03-16T09:34:37.005Z,53.23
2016-03-16T09:35:37.020Z,53.23
2016-03-16T09:36:37.021Z,53.89
2016-03-16T09:37:37.036Z,53.52
2016-03-16T09:38:37.053Z,52.56
2016-03-16T09:39:37.069Z,52.28
2016-03-16T09:40:37.070Z,52
2016-03-16T09:41:37.088Z,51.81
2016-03-16T09:42:37.106Z,52
2016-03-16T09:43:37.124Z,52.56
2016-03-16T09:44:37.140Z,53.14
2016-03-16T09:45:37.159Z,52.37
2016-03-16T09:46:37.162Z,52.09
2016-03-16T09:47:37.179Z,52.66
2016-03-16T09:48:37.182Z,53.04
2016-03-16T09:49:37.217Z,53.04
2016-03-16T09:50:37.203Z,53.14
2016-03-16T09:51:37.237Z,53.52
2016-03-16T09:52:37.239Z,54.18
2016-03-16T09:53:37.258Z,53.99
2016-03-16T09:54:37.261Z,53.96
2016-03-16T09:55:37.279Z,54.15
2016-03-16T09:56:37.298Z,54.15
2016-03-16T09:57:37.299Z,54.44
2016-03-16T09:58:37.334Z,54.06
2016-03-16T09:59:37.336Z,54.44
2016-03-16T10:00:37.355Z,54.44
2016-03-16T10:01:37.357Z,55
2016-03-16T10:02:37.377Z,54.72
2016-03-16T10:03:37.394Z,54.82
2016-03-16T10:04:37.396Z,54.91
2016-03-16T10:05:37.415Z,54.44
2016-03-16T10:06:37.449Z,53.68
2016-03-16T10:07:37.436Z,53.96
2016-03-16T10:08:37.486Z,54.06
2016-03-16T10:09:37.473Z,53.99
2016-03-16T10:10:37.490Z,54.18
2016-03-16T10:11:37.479Z,53.89
2016-03-16T10:12:37.512Z,53.04
2016-03-16T10:13:37.531Z,53.14
2016-03-16T10:14:37.580Z,52.56
2016-03-16T10:15:37.584Z,52.56
2016-03-16T10:16:37.586Z,52.19
2016-03-16T10:17:37.589Z,52.31
2016-03-16T10:18:37.592Z,52.02
2016-03-16T10:19:37.609Z,51.93
2016-03-16T10:20:37.612Z,51.83
2016-03-16T10:21:37.661Z,51.93
2016-03-16T10:22:37.681Z,51.93
2016-03-16T10:23:37.698Z,51.93
2016-03-16T10:24:37.670Z,51.93
2016-03-16T10:25:37.688Z,52.02
2016-03-16T10:26:37.722Z,51.26
2016-03-16T10:27:37.725Z,50.6
2016-03-16T10:28:37.774Z,50.79
2016-03-16T10:29:37.792Z,51.17
2016-03-16T10:30:37.795Z,50.89
2016-03-16T10:31:37.797Z,50.98
2016-03-16T10:32:37.816Z,51.36
2016-03-16T10:33:37.819Z,51.74
2016-03-16T10:34:37.821Z,51.07
2016-03-16T10:35:37.840Z,51.93
2016-03-16T10:36:37.858Z,51.55
2016-03-16T10:37:37.861Z,51.74
2016-03-16T10:38:37.879Z,52.02
2016-03-16T10:39:37.898Z,51.93
2016-03-16T10:40:37.900Z,52.02
2016-03-16T10:41:37.918Z,51.83
2016-03-16T10:42:37.952Z,51.93
2016-03-16T10:43:37.939Z,52.59
2016-03-16T10:44:38.020Z,52.4
2016-03-16T10:45:37.976Z,51.64
2016-03-16T10:46:37.994Z,50.89
2016-03-16T10:47:37.997Z,50.89
2016-03-16T10:48:38.031Z,50.79
2016-03-16T10:49:38.018Z,50.89
2016-03-16T10:50:38.052Z,50.79
2016-03-16T10:51:38.056Z,50.7
2016-03-16T10:52:38.058Z,50.12
2016-03-16T10:53:38.092Z,50.41
2016-03-16T10:54:38.109Z,50.79
2016-03-16T10:55:38.112Z,50.51
2016-03-16T10:56:38.131Z,50.7
2016-03-16T10:57:38.165Z,50.7
2016-03-16T10:58:38.167Z,50.6
2016-03-16T10:59:38.170Z,50.31
2016-03-16T11:00:38.188Z,50.05
2016-03-16T11:01:38.192Z,49.29
2016-03-16T11:02:38.210Z,48.63
2016-03-16T11:03:38.213Z,48.72
2016-03-16T11:04:38.247Z,48.63
2016-03-16T11:05:38.249Z,49.29
2016-03-16T11:06:38.267Z,48.91
2016-03-16T11:07:38.285Z,49.01
2016-03-16T11:08:38.288Z,48.72
2016-03-16T11:09:38.322Z,48.82
2016-03-16T11:10:38.341Z,48.63
2016-03-16T11:11:38.359Z,49.2
2016-03-16T11:12:38.362Z,48.63
2016-03-16T11:13:38.380Z,48.72
2016-03-16T11:14:38.398Z,49.29
2016-03-16T11:15:38.401Z,48.85
2016-03-16T11:16:38.435Z,49.1
2016-03-16T11:17:38.438Z,48.82
2016-03-16T11:18:38.440Z,48.72
2016-03-16T11:19:38.459Z,49.29
2016-03-16T11:20:38.462Z,48.63
2016-03-16T11:21:38.495Z,49.39
2016-03-16T11:22:38.498Z,49.77
2016-03-16T11:23:38.516Z,49.49
2016-03-16T11:24:38.535Z,49.39
2016-03-16T11:25:38.553Z,49.1
2016-03-16T11:26:38.586Z,49.68
2016-03-16T11:27:38.589Z,48.82
2016-03-16T11:28:38.608Z,48.63
2016-03-16T11:29:38.611Z,49.01
2016-03-16T11:30:38.629Z,48.54
2016-03-16T11:31:38.648Z,48.06
2016-03-16T11:32:38.666Z,47.39
2016-03-16T11:33:38.669Z,47.39
2016-03-16T11:34:38.671Z,47.3
2016-03-16T11:35:38.704Z,47.77
2016-03-16T11:36:38.708Z,47.85
2016-03-16T11:37:38.710Z,48.25
2016-03-16T11:38:38.760Z,48.61
2016-03-16T11:39:38.762Z,48.63
2016-03-16T11:40:38.781Z,48.82
2016-03-16T11:41:38.783Z,48.91
2016-03-16T11:42:38.801Z,49.1
2016-03-16T11:43:38.805Z,49.29
2016-03-16T11:44:38.823Z,49.18
2016-03-16T11:45:38.841Z,49.18
2016-03-16T11:46:38.859Z,49.65
2016-03-16T11:47:38.940Z,49.74
2016-03-16T11:48:38.880Z,49.46
2016-03-16T11:49:38.899Z,49.96
2016-03-16T11:50:38.964Z,50.05
2016-03-16T11:51:38.967Z,49.58
2016-03-16T11:52:38.985Z,49.29
2016-03-16T11:53:38.972Z,48.82
2016-03-16T11:54:38.975Z,48.72
2016-03-16T11:55:39.023Z,48.16
2016-03-16T11:56:38.996Z,48.63
2016-03-16T11:57:39.014Z,48.16
2016-03-16T11:58:39.032Z,48.06
2016-03-16T11:59:39.050Z,47.68
2016-03-16T12:00:39.053Z,47.77
2016-03-16T12:01:39.072Z,47.39
2016-03-16T12:02:39.089Z,47.52
2016-03-16T12:03:39.108Z,47.42
2016-03-16T12:04:39.127Z,46.64
2016-03-16T12:05:39.145Z,46.28
2016-03-16T12:06:39.132Z,46.85
2016-03-16T12:07:39.166Z,46.47
2016-03-16T12:08:39.169Z,46.37
2016-03-16T12:09:39.186Z,46
2016-03-16T12:10:39.221Z,46.19
2016-03-16T12:11:39.224Z,44.95
2016-03-16T12:12:39.241Z,45.42
2016-03-16T12:13:39.260Z,45.97
2016-03-16T12:14:39.263Z,46.45
2016-03-16T12:15:39.281Z,46.66
2016-03-16T12:16:39.299Z,46.75
2016-03-16T12:17:39.318Z,46.28
2016-03-16T12:18:39.336Z,45.71
2016-03-16T12:19:39.354Z,46
2016-03-16T12:20:39.373Z,46
2016-03-16T12:21:39.376Z,46
2016-03-16T12:22:39.378Z,46.19
2016-03-16T12:23:39.412Z,44.85
2016-03-16T12:24:39.414Z,44.67
2016-03-16T12:25:39.433Z,44.19
2016-03-16T12:26:39.436Z,44.21
2016-03-16T12:27:39.470Z,43.73
2016-03-16T12:28:39.472Z,43.26
2016-03-16T12:29:39.506Z,43.16
2016-03-16T12:30:39.509Z,43.45
2016-03-16T12:31:39.528Z,43.35
2016-03-16T12:32:39.530Z,42.79
2016-03-16T12:33:39.548Z,42.21
2016-03-16T12:34:39.567Z,42.4
2016-03-16T12:35:39.600Z,41.74
2016-03-16T12:36:39.588Z,40.88
2016-03-16T12:37:39.621Z,40.9
2016-03-16T12:38:40.015Z,41.47
2016-03-16T12:39:39.642Z,40.52
2016-03-16T12:40:39.661Z,40.41
2016-03-16T12:41:39.679Z,40.98
2016-03-16T12:42:39.697Z,41.07
2016-03-16T12:43:39.747Z,41.55
2016-03-16T12:44:39.719Z,40.59
2016-03-16T12:45:39.752Z,40.69
2016-03-16T12:46:39.739Z,41.07
2016-03-16T12:47:39.836Z,41.55
2016-03-16T12:48:39.823Z,41.74
2016-03-16T12:49:39.810Z,40.88
2016-03-16T12:50:39.812Z,41.07
2016-03-16T12:51:39.847Z,40.88
2016-03-16T12:52:39.834Z,41.64
2016-03-16T12:53:39.884Z,41.74
2016-03-16T12:54:39.901Z,41.85
2016-03-16T12:55:39.904Z,40.62
2016-03-16T12:56:39.923Z,40.9